createdAt,value
2019-04-04T00:00:28.384Z,4.67
2019-04-04T00:01:28.371Z,4.65
2019-04-04T00:02:28.359Z,4.58
2019-04-04T00:03:28.352Z,4.55
2019-04-04T00:04:28.351Z,4.63
2019-04-04T00:05:28.352Z,4.54
2019-04-04T00:06:28.316Z,4.55
2019-04-04T00:07:29.093Z,4.58
2019-04-04T00:08:30.768Z,4.58
2019-04-04T00:09:28.290Z,4.62
2019-04-04T00:10:28.293Z,4.58
2019-04-04T00:11:28.249Z,4.54
2019-04-04T00:12:28.243Z,4.51
2019-04-04T00:13:28.239Z,4.47
2019-04-04T00:14:28.235Z,4.41
2019-04-04T00:15:28.229Z,4.34
2019-04-04T00:16:28.250Z,4.47
2019-04-04T00:17:28.185Z,4.52
2019-04-04T00:18:28.173Z,4.47
2019-04-04T00:19:29.936Z,4.40
2019-04-04T00:20:29.816Z,4.47
2019-04-04T00:21:28.175Z,4.36
2019-04-04T00:22:28.155Z,4.51
2019-04-04T00:23:28.138Z,4.42
2019-04-04T00:24:28.112Z,4.42
2019-04-04T00:25:28.099Z,4.44
2019-04-04T00:26:28.134Z,4.37
2019-04-04T00:27:28.092Z,4.42
2019-04-04T00:28:28.091Z,4.44
2019-04-04T00:29:28.059Z,4.52
2019-04-04T00:30:28.044Z,4.45
2019-04-04T00:31:28.036Z,4.47
2019-04-04T00:32:28.048Z,4.45
2019-04-04T00:33:28.049Z,4.40
2019-04-04T00:34:28.738Z,4.40
2019-04-04T00:35:29.072Z,4.48
2019-04-04T00:36:27.977Z,4.44
2019-04-04T00:37:28.002Z,4.32
2019-04-04T00:38:27.984Z,4.33
2019-04-04T00:39:27.972Z,4.41
2019-04-04T00:40:27.929Z,4.32
2019-04-04T00:41:27.920Z,4.33
2019-04-04T00:42:27.922Z,4.30
2019-04-04T00:43:27.925Z,4.36
2019-04-04T00:44:27.896Z,4.32
2019-04-04T00:45:28.991Z,4.29
2019-04-04T00:46:29.049Z,4.26
2019-04-04T00:47:27.859Z,4.29
2019-04-04T00:48:27.861Z,4.15
2019-04-04T00:49:27.844Z,4.26
2019-04-04T00:50:27.834Z,4.20
2019-04-04T00:51:27.843Z,4.26
2019-04-04T00:52:27.802Z,4.24
2019-04-04T00:53:27.787Z,4.23
2019-04-04T00:54:27.787Z,4.23
2019-04-04T00:55:27.782Z,4.24
2019-04-04T00:56:27.783Z,4.14
2019-04-04T00:57:28.408Z,4.05
2019-04-04T00:58:27.736Z,4.08
2019-04-04T00:59:27.739Z,4.08
2019-04-04T01:00:27.734Z,4.18
2019-04-04T01:01:28.413Z,4.08
2019-04-04T01:02:27.982Z,4.06
2019-04-04T01:03:28.089Z,4.08
2019-04-04T01:04:30.839Z,4.11
2019-04-04T01:05:27.660Z,4.12
2019-04-04T01:06:27.658Z,4.09
2019-04-04T01:07:27.651Z,4.11
2019-04-04T01:08:27.663Z,4.11
2019-04-04T01:09:27.645Z,4.15
2019-04-04T01:10:27.599Z,4.02
2019-04-04T01:11:27.591Z,4.02
2019-04-04T01:12:27.583Z,4.05
2019-04-04T01:13:27.838Z,4.05
2019-04-04T01:14:29.325Z,4.04
2019-04-04T01:15:30.797Z,4.02
2019-04-04T01:16:27.557Z,4.04
2019-04-04T01:17:27.525Z,4.00
2019-04-04T01:18:27.524Z,3.97
2019-04-04T01:19:27.511Z,4.00
2019-04-04T01:20:27.518Z,3.96
2019-04-04T01:21:27.478Z,3.87
2019-04-04T01:22:27.477Z,3.90
2019-04-04T01:23:27.699Z,3.90
2019-04-04T01:24:29.122Z,3.88
2019-04-04T01:25:27.451Z,3.84
2019-04-04T01:26:27.484Z,3.84
2019-04-04T01:27:27.449Z,3.78
2019-04-04T01:28:27.402Z,3.78
2019-04-04T01:29:27.394Z,3.90
2019-04-04T01:30:27.393Z,3.80
2019-04-04T01:31:27.386Z,3.87
2019-04-04T01:32:27.387Z,3.79
2019-04-04T01:33:27.357Z,3.83
2019-04-04T01:34:27.349Z,3.83
2019-04-04T01:35:27.330Z,3.78
2019-04-04T01:36:27.335Z,3.79
2019-04-04T01:37:27.881Z,3.75
2019-04-04T01:38:29.141Z,3.68
2019-04-04T01:39:29.028Z,3.70
2019-04-04T01:40:27.274Z,3.72
2019-04-04T01:41:27.277Z,3.73
2019-04-04T01:42:27.268Z,3.75
2019-04-04T01:43:27.269Z,3.69
2019-04-04T01:44:27.227Z,3.62
2019-04-04T01:45:27.217Z,3.73
2019-04-04T01:46:27.199Z,3.68
2019-04-04T01:47:27.212Z,3.68
2019-04-04T01:48:27.196Z,3.54
2019-04-04T01:49:27.223Z,3.58
2019-04-04T01:50:27.153Z,3.52
2019-04-04T01:51:27.140Z,3.51
2019-04-04T01:52:28.676Z,3.52
2019-04-04T01:53:28.136Z,3.54
2019-04-04T01:54:27.140Z,3.51
2019-04-04T01:55:27.133Z,3.58
2019-04-04T01:56:27.102Z,3.54
2019-04-04T01:57:27.086Z,3.55
2019-04-04T01:58:27.083Z,3.62
2019-04-04T01:59:27.073Z,3.57
2019-04-04T02:00:27.082Z,3.61
2019-04-04T02:01:27.914Z,3.58
2019-04-04T02:02:27.021Z,3.57
2019-04-04T02:03:27.012Z,3.57
2019-04-04T02:04:27.012Z,3.62
2019-04-04T02:05:27.613Z,3.52
2019-04-04T02:06:28.442Z,3.58
2019-04-04T02:07:27.791Z,3.55
2019-04-04T02:08:26.957Z,3.55
2019-04-04T02:09:26.943Z,3.43
2019-04-04T02:10:26.948Z,3.52
2019-04-04T02:11:26.962Z,3.58
2019-04-04T02:12:26.930Z,3.60
2019-04-04T02:13:26.944Z,3.60
2019-04-04T02:14:26.888Z,3.51
2019-04-04T02:15:26.882Z,3.35
2019-04-04T02:16:26.877Z,3.31
2019-04-04T02:17:26.891Z,3.26
2019-04-04T02:18:26.867Z,3.05
2019-04-04T02:19:26.881Z,3.06
2019-04-04T02:20:27.447Z,2.96
2019-04-04T02:21:28.537Z,2.97
2019-04-04T02:22:26.827Z,2.96
2019-04-04T02:23:26.799Z,3.02
2019-04-04T02:24:26.796Z,2.99
2019-04-04T02:25:26.767Z,2.99
2019-04-04T02:26:26.759Z,2.99
2019-04-04T02:27:26.744Z,2.97
2019-04-04T02:28:26.759Z,3.10
2019-04-04T02:29:26.734Z,3.05
2019-04-04T02:30:26.712Z,2.99
2019-04-04T02:31:26.702Z,2.96
2019-04-04T02:32:27.684Z,3.02
2019-04-04T02:33:27.013Z,2.99
2019-04-04T02:34:26.672Z,2.84
2019-04-04T02:35:26.673Z,3.02
2019-04-04T02:36:26.652Z,2.99
2019-04-04T02:37:26.627Z,3.10
2019-04-04T02:38:27.982Z,3.11
2019-04-04T02:39:26.645Z,3.13
2019-04-04T02:40:26.625Z,3.20
2019-04-04T02:41:26.611Z,3.21
2019-04-04T02:42:26.589Z,3.23
2019-04-04T02:43:28.278Z,3.26
2019-04-04T02:44:26.583Z,3.18
2019-04-04T02:45:26.562Z,3.29
2019-04-04T02:46:26.550Z,3.31
2019-04-04T02:47:26.565Z,3.32
2019-04-04T02:48:26.507Z,3.39
2019-04-04T02:49:29.250Z,3.40
2019-04-04T02:50:26.509Z,3.39
2019-04-04T02:51:26.487Z,3.47
2019-04-04T02:52:26.506Z,3.48
2019-04-04T02:53:26.457Z,3.47
2019-04-04T02:54:26.445Z,3.51
2019-04-04T02:55:29.774Z,3.55
2019-04-04T02:56:26.428Z,3.55
2019-04-04T02:57:26.428Z,3.50
2019-04-04T02:58:26.443Z,3.57
2019-04-04T02:59:26.419Z,3.61
2019-04-04T03:00:27.694Z,3.54
2019-04-04T03:01:26.377Z,3.65
2019-04-04T03:02:26.408Z,3.70
2019-04-04T03:03:26.348Z,3.68
2019-04-04T03:04:26.361Z,3.62
2019-04-04T03:05:26.368Z,3.69
2019-04-04T03:06:26.312Z,3.83
2019-04-04T03:07:29.881Z,3.79
2019-04-04T03:08:26.295Z,3.68
2019-04-04T03:09:26.286Z,3.70
2019-04-04T03:10:26.285Z,3.65
2019-04-04T03:11:26.256Z,3.69
2019-04-04T03:12:27.033Z,3.66
2019-04-04T03:13:26.266Z,3.76
2019-04-04T03:14:26.227Z,3.73
2019-04-04T03:15:26.225Z,3.76
2019-04-04T03:16:26.229Z,3.78
2019-04-04T03:17:26.207Z,3.79
2019-04-04T03:18:26.186Z,3.76
2019-04-04T03:19:26.189Z,3.84
2019-04-04T03:20:26.166Z,3.83
2019-04-04T03:21:26.193Z,3.79
2019-04-04T03:22:27.562Z,3.90
2019-04-04T03:23:26.179Z,3.87
2019-04-04T03:24:26.114Z,3.91
2019-04-04T03:25:26.096Z,3.97
2019-04-04T03:26:26.106Z,3.98
2019-04-04T03:27:27.203Z,3.96
2019-04-04T03:28:26.100Z,3.98
2019-04-04T03:29:26.070Z,3.98
2019-04-04T03:30:26.048Z,4.00
2019-04-04T03:31:26.047Z,4.04
2019-04-04T03:32:26.041Z,4.00
2019-04-04T03:33:31.337Z,4.00
2019-04-04T03:34:27.022Z,4.00
2019-04-04T03:35:28.458Z,4.05
2019-04-04T03:36:25.984Z,4.05
2019-04-04T03:37:25.985Z,3.97
2019-04-04T03:38:25.967Z,4.06
2019-04-04T03:39:25.968Z,4.02
2019-04-04T03:40:26.055Z,4.08
2019-04-04T03:41:27.559Z,4.02
2019-04-04T03:42:25.908Z,4.00
2019-04-04T03:43:25.912Z,4.08
2019-04-04T03:44:25.949Z,4.15
2019-04-04T03:45:27.266Z,4.12
2019-04-04T03:46:25.864Z,4.18
2019-04-04T03:47:25.868Z,4.18
2019-04-04T03:48:25.851Z,4.22
2019-04-04T03:49:25.850Z,4.18
2019-04-04T03:50:29.144Z,4.12
2019-04-04T03:51:25.816Z,4.11
2019-04-04T03:52:25.802Z,4.09
2019-04-04T03:53:25.801Z,4.11
2019-04-04T03:54:25.776Z,4.09
2019-04-04T03:55:27.811Z,4.12
2019-04-04T03:56:25.794Z,4.14
2019-04-04T03:57:25.744Z,4.09
2019-04-04T03:58:27.905Z,4.16
2019-04-04T03:59:25.721Z,4.08
2019-04-04T04:00:25.713Z,4.08
2019-04-04T04:01:25.706Z,4.05
2019-04-04T04:02:25.724Z,4.00
2019-04-04T04:03:25.681Z,4.08
2019-04-04T04:04:28.176Z,4.06
2019-04-04T04:05:25.648Z,4.08
2019-04-04T04:06:25.644Z,4.11
2019-04-04T04:07:25.664Z,4.06
2019-04-04T04:08:25.652Z,4.11
2019-04-04T04:09:26.369Z,4.09
2019-04-04T04:10:25.601Z,4.09
2019-04-04T04:11:25.591Z,4.09
2019-04-04T04:12:25.592Z,4.16
2019-04-04T04:13:25.583Z,4.11
2019-04-04T04:14:25.586Z,4.20
2019-04-04T04:15:29.048Z,4.20
2019-04-04T04:16:25.532Z,4.16
2019-04-04T04:17:25.588Z,4.14
2019-04-04T04:18:25.540Z,4.22
2019-04-04T04:19:30.101Z,4.22
2019-04-04T04:20:25.522Z,4.18
2019-04-04T04:21:25.506Z,4.16
2019-04-04T04:22:26.399Z,4.29
2019-04-04T04:23:25.457Z,4.26
2019-04-04T04:24:26.740Z,4.30
2019-04-04T04:25:25.452Z,4.24
2019-04-04T04:26:25.428Z,4.29
2019-04-04T04:27:25.423Z,4.27
2019-04-04T04:28:25.391Z,4.29
2019-04-04T04:29:29.382Z,4.32
2019-04-04T04:30:25.381Z,4.26
2019-04-04T04:31:25.380Z,4.29
2019-04-04T04:32:25.375Z,4.27
2019-04-04T04:33:28.933Z,4.32
2019-04-04T04:34:25.330Z,4.30
2019-04-04T04:35:25.340Z,4.33
2019-04-04T04:36:25.323Z,4.33
2019-04-04T04:37:25.327Z,4.37
2019-04-04T04:38:26.739Z,4.26
2019-04-04T04:39:25.305Z,4.33
2019-04-04T04:40:25.288Z,4.26
2019-04-04T04:41:25.276Z,4.23
2019-04-04T04:42:26.592Z,4.20
2019-04-04T04:43:25.223Z,4.20
2019-04-04T04:44:25.224Z,4.18
2019-04-04T04:45:25.211Z,4.08
2019-04-04T04:46:25.202Z,4.04
2019-04-04T04:47:25.274Z,4.00
2019-04-04T04:48:26.053Z,4.02
2019-04-04T04:49:25.198Z,3.98
2019-04-04T04:50:25.153Z,4.02
2019-04-04T04:51:25.163Z,3.96
2019-04-04T04:52:25.127Z,4.00
2019-04-04T04:53:25.146Z,4.06
2019-04-04T04:54:25.133Z,4.11
2019-04-04T04:55:27.188Z,4.08
2019-04-04T04:56:25.092Z,4.22
2019-04-04T04:57:29.818Z,4.20
2019-04-04T04:58:26.083Z,4.20
2019-04-04T04:59:25.063Z,4.18
2019-04-04T05:00:27.551Z,4.23
2019-04-04T05:01:25.028Z,4.16
2019-04-04T05:02:25.042Z,4.23
2019-04-04T05:03:25.005Z,4.29
2019-04-04T05:04:27.824Z,4.24
2019-04-04T05:05:24.995Z,4.26
2019-04-04T05:06:24.988Z,4.33
2019-04-04T05:07:24.961Z,4.32
2019-04-04T05:08:24.952Z,4.29
2019-04-04T05:09:24.935Z,4.29
2019-04-04T05:10:24.942Z,4.34
2019-04-04T05:11:24.935Z,4.36
2019-04-04T05:12:24.931Z,4.30
2019-04-04T05:13:28.583Z,4.30
2019-04-04T05:14:24.886Z,4.33
2019-04-04T05:15:24.874Z,4.33
2019-04-04T05:16:24.872Z,4.30
2019-04-04T05:17:24.867Z,4.34
2019-04-04T05:18:24.833Z,4.24
2019-04-04T05:19:24.831Z,4.34
2019-04-04T05:20:25.631Z,4.32
2019-04-04T05:21:28.532Z,4.26
2019-04-04T05:22:24.812Z,4.33
2019-04-04T05:23:24.826Z,4.33
2019-04-04T05:24:24.808Z,4.24
2019-04-04T05:25:24.785Z,4.33
2019-04-04T05:26:24.780Z,4.33
2019-04-04T05:27:24.743Z,4.36
2019-04-04T05:28:24.738Z,4.34
2019-04-04T05:29:24.731Z,4.41
2019-04-04T05:30:24.733Z,4.33
2019-04-04T05:31:24.691Z,4.40
2019-04-04T05:32:24.677Z,4.40
2019-04-04T05:33:26.935Z,4.42
2019-04-04T05:34:24.673Z,4.44
2019-04-04T05:35:24.695Z,4.44
2019-04-04T05:36:24.638Z,4.42
2019-04-04T05:37:27.384Z,4.45
2019-04-04T05:38:24.609Z,4.48
2019-04-04T05:39:24.620Z,4.52
2019-04-04T05:40:24.631Z,4.51
2019-04-04T05:41:27.086Z,4.50
2019-04-04T05:42:24.596Z,4.50
2019-04-04T05:43:24.558Z,4.34
2019-04-04T05:44:24.558Z,4.42
2019-04-04T05:45:24.555Z,4.48
2019-04-04T05:46:24.554Z,4.52
2019-04-04T05:47:24.540Z,4.47
2019-04-04T05:48:24.499Z,4.48
2019-04-04T05:49:24.491Z,4.41
2019-04-04T05:50:24.486Z,4.44
2019-04-04T05:51:24.514Z,4.45
2019-04-04T05:52:24.484Z,4.51
2019-04-04T05:53:24.467Z,4.51
2019-04-04T05:54:24.435Z,4.55
2019-04-04T05:55:24.424Z,4.59
2019-04-04T05:56:24.552Z,4.58
2019-04-04T05:57:24.427Z,4.62
2019-04-04T05:58:24.414Z,4.59
2019-04-04T05:59:24.518Z,4.59
2019-04-04T06:00:26.977Z,4.66
2019-04-04T06:01:24.401Z,4.62
2019-04-04T06:02:24.420Z,4.65
2019-04-04T06:03:24.352Z,4.66
2019-04-04T06:04:24.375Z,4.58
2019-04-04T06:05:26.860Z,4.54
2019-04-04T06:06:24.302Z,4.54
2019-04-04T06:07:24.312Z,4.54
2019-04-04T06:08:24.365Z,4.59
2019-04-04T06:09:24.284Z,4.58
2019-04-04T06:10:24.309Z,4.66
2019-04-04T06:11:24.259Z,4.65
2019-04-04T06:12:25.029Z,4.67
2019-04-04T06:13:26.716Z,4.73
2019-04-04T06:14:24.235Z,4.75
2019-04-04T06:15:24.219Z,4.77
2019-04-04T06:16:24.223Z,4.82
2019-04-04T06:17:26.937Z,4.80
2019-04-04T06:18:24.189Z,4.78
2019-04-04T06:19:24.157Z,4.85
2019-04-04T06:20:24.166Z,4.89
2019-04-04T06:21:24.156Z,4.88
2019-04-04T06:22:24.148Z,4.92
2019-04-04T06:23:25.052Z,5.09
2019-04-04T06:24:25.160Z,5.07
2019-04-04T06:25:24.096Z,5.13
2019-04-04T06:26:24.098Z,5.06
2019-04-04T06:27:24.089Z,5.03
2019-04-04T06:28:24.060Z,4.99
2019-04-04T06:29:24.062Z,5.10
2019-04-04T06:30:24.034Z,4.94
2019-04-04T06:31:26.205Z,5.00
2019-04-04T06:32:24.024Z,5.10
2019-04-04T06:33:24.037Z,5.02
2019-04-04T06:34:24.209Z,5.09
2019-04-04T06:35:23.991Z,5.07
2019-04-04T06:36:23.969Z,5.07
2019-04-04T06:37:23.962Z,5.07
2019-04-04T06:38:24.160Z,5.15
2019-04-04T06:39:25.148Z,5.13
2019-04-04T06:40:23.931Z,5.10
2019-04-04T06:41:27.923Z,5.25
2019-04-04T06:42:23.920Z,5.25
2019-04-04T06:43:23.926Z,5.35
2019-04-04T06:44:23.903Z,5.33
2019-04-04T06:45:23.891Z,5.30
2019-04-04T06:46:23.858Z,5.28
2019-04-04T06:47:25.499Z,5.33
2019-04-04T06:48:23.858Z,5.36
2019-04-04T06:49:23.845Z,5.35
2019-04-04T06:50:23.838Z,5.36
2019-04-04T06:51:23.803Z,5.36
2019-04-04T06:52:23.805Z,5.39
2019-04-04T06:53:23.839Z,5.33
2019-04-04T06:54:25.697Z,5.35
2019-04-04T06:55:23.779Z,5.36
2019-04-04T06:56:23.766Z,5.43
2019-04-04T06:57:23.739Z,5.42
2019-04-04T06:58:23.724Z,5.58
2019-04-04T06:59:23.742Z,5.57
2019-04-04T07:00:23.702Z,5.48
2019-04-04T07:01:25.360Z,5.49
2019-04-04T07:02:23.950Z,5.56
2019-04-04T07:03:27.041Z,5.56
2019-04-04T07:04:23.718Z,5.56
2019-04-04T07:05:23.730Z,5.56
2019-04-04T07:06:23.646Z,5.48
2019-04-04T07:07:23.653Z,5.46
2019-04-04T07:08:23.629Z,5.49
2019-04-04T07:09:23.638Z,5.56
2019-04-04T07:10:23.600Z,5.46
2019-04-04T07:11:23.582Z,5.43
2019-04-04T07:12:28.287Z,5.36
2019-04-04T07:13:27.065Z,5.39
2019-04-04T07:14:23.544Z,5.36
2019-04-04T07:15:23.537Z,5.36
2019-04-04T07:16:23.526Z,5.38
2019-04-04T07:17:23.522Z,5.46
2019-04-04T07:18:23.535Z,5.42
2019-04-04T07:19:23.536Z,5.53
2019-04-04T07:20:23.501Z,5.60
2019-04-04T07:21:23.483Z,5.49
2019-04-04T07:22:24.920Z,5.64
2019-04-04T07:23:27.237Z,5.65
2019-04-04T07:24:23.491Z,5.72
2019-04-04T07:25:23.447Z,5.74
2019-04-04T07:26:23.450Z,5.78
2019-04-04T07:27:23.402Z,5.83
2019-04-04T07:28:23.391Z,5.83
2019-04-04T07:29:25.294Z,5.83
2019-04-04T07:30:23.397Z,5.86
2019-04-04T07:31:23.378Z,5.91
2019-04-04T07:32:23.385Z,5.86
2019-04-04T07:33:23.336Z,5.91
2019-04-04T07:34:23.325Z,5.96
2019-04-04T07:35:23.348Z,5.90
2019-04-04T07:36:23.327Z,6.04
2019-04-04T07:37:23.315Z,6.11
2019-04-04T07:38:23.280Z,6.15
2019-04-04T07:39:23.269Z,6.17
2019-04-04T07:40:23.282Z,6.15
2019-04-04T07:41:23.259Z,6.21
2019-04-04T07:42:23.258Z,6.22
2019-04-04T07:43:23.258Z,6.21
2019-04-04T07:44:23.938Z,6.25
2019-04-04T07:45:26.741Z,6.22
2019-04-04T07:46:23.193Z,6.33
2019-04-04T07:47:23.192Z,6.38
2019-04-04T07:48:23.207Z,6.38
2019-04-04T07:49:23.862Z,6.51
2019-04-04T07:50:24.157Z,6.52
2019-04-04T07:51:23.136Z,6.54
2019-04-04T07:52:23.125Z,6.62
2019-04-04T07:53:23.139Z,6.76
2019-04-04T07:54:23.124Z,6.80
2019-04-04T07:55:23.114Z,6.84
2019-04-04T07:56:23.090Z,6.79
2019-04-04T07:57:23.067Z,6.89
2019-04-04T07:58:23.058Z,6.85
2019-04-04T07:59:23.073Z,6.91
2019-04-04T08:00:23.056Z,6.99
2019-04-04T08:01:23.027Z,7.02
2019-04-04T08:02:23.020Z,7.07
2019-04-04T08:03:23.002Z,7.06
2019-04-04T08:04:23.011Z,7.05
2019-04-04T08:05:22.995Z,7.12
2019-04-04T08:06:22.983Z,7.15
2019-04-04T08:07:22.962Z,7.31
2019-04-04T08:08:22.952Z,7.24
2019-04-04T08:09:25.984Z,7.30
2019-04-04T08:10:22.934Z,7.28
2019-04-04T08:11:22.933Z,7.34
2019-04-04T08:12:22.913Z,7.42
2019-04-04T08:13:22.922Z,7.52
2019-04-04T08:14:22.931Z,7.64
2019-04-04T08:15:22.886Z,7.68
2019-04-04T08:16:22.879Z,7.64
2019-04-04T08:17:22.857Z,7.68
2019-04-04T08:18:22.855Z,7.75
2019-04-04T08:19:22.825Z,7.82
2019-04-04T08:20:22.838Z,7.77
2019-04-04T08:21:22.800Z,8.00
2019-04-04T08:22:22.981Z,8.04
2019-04-04T08:23:22.798Z,8.11
2019-04-04T08:24:22.787Z,8.16
2019-04-04T08:25:22.799Z,8.26
2019-04-04T08:26:22.791Z,8.22
2019-04-04T08:27:22.735Z,8.34
2019-04-04T08:28:22.740Z,8.38
2019-04-04T08:29:22.728Z,8.40
2019-04-04T08:30:22.728Z,8.38
2019-04-04T08:31:22.702Z,8.50
2019-04-04T08:32:22.678Z,8.41
2019-04-04T08:33:22.669Z,8.52
2019-04-04T08:34:22.680Z,8.56
2019-04-04T08:35:22.654Z,8.70
2019-04-04T08:36:22.671Z,8.68
2019-04-04T08:37:22.625Z,8.83
2019-04-04T08:38:22.614Z,8.91
2019-04-04T08:39:22.605Z,9.05
2019-04-04T08:40:22.619Z,9.17
2019-04-04T08:41:22.602Z,9.17
2019-04-04T08:42:22.977Z,9.33
2019-04-04T08:43:22.559Z,9.39
2019-04-04T08:44:22.568Z,9.39
2019-04-04T08:45:22.540Z,9.50
2019-04-04T08:46:23.465Z,9.57
2019-04-04T08:47:22.546Z,9.61
2019-04-04T08:48:22.531Z,9.69
2019-04-04T08:49:22.543Z,9.61
2019-04-04T08:50:22.485Z,9.71
2019-04-04T08:51:22.471Z,9.78
2019-04-04T08:52:22.480Z,9.93
2019-04-04T08:53:22.465Z,9.93
2019-04-04T08:54:22.491Z,9.90
2019-04-04T08:55:22.434Z,9.90
2019-04-04T08:56:22.424Z,10.04
2019-04-04T08:57:22.410Z,10.04
2019-04-04T08:58:22.416Z,10.07
2019-04-04T08:59:22.401Z,9.94
2019-04-04T09:00:22.380Z,9.83
2019-04-04T09:01:22.367Z,9.74
2019-04-04T09:02:22.366Z,9.83
2019-04-04T09:03:22.352Z,9.86
2019-04-04T09:04:24.006Z,9.87
2019-04-04T09:05:22.339Z,9.91
2019-04-04T09:06:22.302Z,10.02
2019-04-04T09:07:22.296Z,10.08
2019-04-04T09:08:22.279Z,10.22
2019-04-04T09:09:22.292Z,10.30
2019-04-04T09:10:22.285Z,10.45
2019-04-04T09:11:22.242Z,10.40
2019-04-04T09:12:22.239Z,10.42
2019-04-04T09:13:22.225Z,10.45
2019-04-04T09:14:22.218Z,10.47
2019-04-04T09:15:22.236Z,10.51
2019-04-04T09:16:22.210Z,10.56
2019-04-04T09:17:22.179Z,10.44
2019-04-04T09:18:22.170Z,10.47
2019-04-04T09:19:22.163Z,10.44
2019-04-04T09:20:22.152Z,10.47
2019-04-04T09:21:22.159Z,10.52
2019-04-04T09:22:24.159Z,10.42
2019-04-04T09:23:22.150Z,10.40
2019-04-04T09:24:22.111Z,10.33
2019-04-04T09:25:22.107Z,10.30
2019-04-04T09:26:22.082Z,10.22
2019-04-04T09:27:22.080Z,10.18
2019-04-04T09:28:22.086Z,10.32
2019-04-04T09:29:22.079Z,10.40
2019-04-04T09:30:22.055Z,10.44
2019-04-04T09:31:22.027Z,10.56
2019-04-04T09:32:22.023Z,10.66
2019-04-04T09:33:22.015Z,10.71
2019-04-04T09:34:22.022Z,10.78
2019-04-04T09:35:22.023Z,10.81
2019-04-04T09:36:21.970Z,10.86
2019-04-04T09:37:21.971Z,10.91
2019-04-04T09:38:21.951Z,11.14
2019-04-04T09:39:21.947Z,11.22
2019-04-04T09:40:21.974Z,11.14
2019-04-04T09:41:21.919Z,11.07
2019-04-04T09:42:21.902Z,11.07
2019-04-04T09:43:21.898Z,11.10
2019-04-04T09:44:21.895Z,10.91
2019-04-04T09:45:21.879Z,10.81
2019-04-04T09:46:21.878Z,10.82
2019-04-04T09:47:21.850Z,10.82
2019-04-04T09:48:21.838Z,10.84
2019-04-04T09:49:21.822Z,10.79
2019-04-04T09:50:21.835Z,10.71
2019-04-04T09:51:21.831Z,10.82
2019-04-04T09:52:21.815Z,10.86
2019-04-04T09:53:21.784Z,10.97
2019-04-04T09:54:21.770Z,11.04
2019-04-04T09:55:21.758Z,11.24
2019-04-04T09:56:21.774Z,11.28
2019-04-04T09:57:21.763Z,11.10
2019-04-04T09:58:21.722Z,10.99
2019-04-04T09:59:21.716Z,11.07
2019-04-04T10:00:21.705Z,11.11
2019-04-04T10:01:21.695Z,11.14
2019-04-04T10:02:21.707Z,11.10
2019-04-04T10:03:21.690Z,11.07
2019-04-04T10:04:21.692Z,11.21
2019-04-04T10:05:21.643Z,11.21
2019-04-04T10:06:21.638Z,11.28
2019-04-04T10:07:21.636Z,11.36
2019-04-04T10:08:21.711Z,11.36
2019-04-04T10:09:21.631Z,11.54
2019-04-04T10:10:21.586Z,11.52
2019-04-04T10:11:21.580Z,11.57
2019-04-04T10:12:21.568Z,11.57
2019-04-04T10:13:21.577Z,11.51
2019-04-04T10:14:22.816Z,11.43
2019-04-04T10:15:21.574Z,11.43
2019-04-04T10:16:21.524Z,11.42
2019-04-04T10:17:21.511Z,11.39
2019-04-04T10:18:21.504Z,11.39
2019-04-04T10:19:21.507Z,11.21
2019-04-04T10:20:21.497Z,11.22
2019-04-04T10:21:21.518Z,11.09
2019-04-04T10:22:21.453Z,11.09
2019-04-04T10:23:21.449Z,11.03
2019-04-04T10:24:21.444Z,11.18
2019-04-04T10:25:21.459Z,11.18
2019-04-04T10:26:21.441Z,11.29
2019-04-04T10:27:21.437Z,11.37
2019-04-04T10:28:23.330Z,11.47
2019-04-04T10:29:21.383Z,11.49
2019-04-04T10:30:21.398Z,11.47
2019-04-04T10:31:21.391Z,11.54
2019-04-04T10:32:21.370Z,11.60
2019-04-04T10:33:21.360Z,11.62
2019-04-04T10:34:21.332Z,11.46
2019-04-04T10:35:21.326Z,11.40
2019-04-04T10:36:21.324Z,11.42
2019-04-04T10:37:21.326Z,11.40
2019-04-04T10:38:21.309Z,11.39
2019-04-04T10:39:28.887Z,11.43
2019-04-04T10:40:22.263Z,11.43
2019-04-04T10:41:21.258Z,11.62
2019-04-04T10:42:21.239Z,11.76
2019-04-04T10:43:21.233Z,11.80
2019-04-04T10:44:21.239Z,11.86
2019-04-04T10:45:21.206Z,12.02
2019-04-04T10:46:21.297Z,12.07
2019-04-04T10:47:21.180Z,12.14
2019-04-04T10:48:21.177Z,12.20
2019-04-04T10:49:21.169Z,12.23
2019-04-04T10:50:21.164Z,12.23
2019-04-04T10:51:21.130Z,12.28
2019-04-04T10:52:21.133Z,12.28
2019-04-04T10:53:21.118Z,12.29
2019-04-04T10:54:21.117Z,12.32
2019-04-04T10:55:21.099Z,12.28
2019-04-04T10:56:21.103Z,12.37
2019-04-04T10:57:21.077Z,12.39
2019-04-04T10:58:21.053Z,12.46
2019-04-04T10:59:21.052Z,12.64
2019-04-04T11:00:21.044Z,12.71
2019-04-04T11:01:21.036Z,12.92
2019-04-04T11:02:21.037Z,12.82
2019-04-04T11:03:20.997Z,12.65
2019-04-04T11:04:20.984Z,12.65
2019-04-04T11:05:20.995Z,12.64
2019-04-04T11:06:20.972Z,12.67
2019-04-04T11:07:20.969Z,12.78
2019-04-04T11:08:20.950Z,12.79
2019-04-04T11:09:20.931Z,12.93
2019-04-04T11:10:20.919Z,12.83
2019-04-04T11:11:20.919Z,12.85
2019-04-04T11:12:20.925Z,12.95
2019-04-04T11:13:32.868Z,13.15
2019-04-04T11:14:21.889Z,13.11
2019-04-04T11:15:20.882Z,12.92
2019-04-04T11:16:30.031Z,12.78
2019-04-04T11:17:20.870Z,12.64
2019-04-04T11:18:20.884Z,12.56
2019-04-04T11:19:30.625Z,12.53
2019-04-04T11:20:20.816Z,12.56
2019-04-04T11:21:20.807Z,12.53
2019-04-04T11:22:20.828Z,12.47
2019-04-04T11:23:20.803Z,12.41
2019-04-04T11:24:20.807Z,12.37
2019-04-04T11:25:20.850Z,12.42
2019-04-04T11:26:20.749Z,12.47
2019-04-04T11:27:20.729Z,12.53
2019-04-04T11:28:20.757Z,12.50
2019-04-04T11:29:20.724Z,12.37
2019-04-04T11:30:20.710Z,12.29
2019-04-04T11:31:20.713Z,12.38
2019-04-04T11:32:21.504Z,12.28
2019-04-04T11:33:20.669Z,12.32
2019-04-04T11:34:20.653Z,12.34
2019-04-04T11:35:20.652Z,12.31
2019-04-04T11:36:20.653Z,12.39
2019-04-04T11:37:20.647Z,12.37
2019-04-04T11:38:21.019Z,12.21
2019-04-04T11:39:20.595Z,12.02
2019-04-04T11:40:20.587Z,12.14
2019-04-04T11:41:20.630Z,12.23
2019-04-04T11:42:20.585Z,12.16
2019-04-04T11:43:20.585Z,12.17
2019-04-04T11:44:20.599Z,12.05
2019-04-04T11:45:20.535Z,12.04
2019-04-04T11:46:20.545Z,12.02
2019-04-04T11:47:20.535Z,11.98
2019-04-04T11:48:20.524Z,12.10
2019-04-04T11:49:20.491Z,12.20
2019-04-04T11:50:20.489Z,12.20
2019-04-04T11:51:20.464Z,12.35
2019-04-04T11:52:20.465Z,12.45
2019-04-04T11:53:20.476Z,12.38
2019-04-04T11:54:20.452Z,12.27
2019-04-04T11:55:20.459Z,12.32
2019-04-04T11:56:20.429Z,12.12
2019-04-04T11:57:20.397Z,12.17
2019-04-04T11:58:20.395Z,12.19
2019-04-04T11:59:20.431Z,12.37
2019-04-04T12:00:20.392Z,12.38
2019-04-04T12:01:20.388Z,12.47
2019-04-04T12:02:20.398Z,12.52
2019-04-04T12:03:20.354Z,12.49
2019-04-04T12:04:20.343Z,12.38
2019-04-04T12:05:20.344Z,12.34
2019-04-04T12:06:20.301Z,12.31
2019-04-04T12:07:20.299Z,12.35
2019-04-04T12:08:20.299Z,12.41
2019-04-04T12:09:20.280Z,12.52
2019-04-04T12:10:20.272Z,12.56
2019-04-04T12:11:22.665Z,12.56
2019-04-04T12:12:20.231Z,12.54
2019-04-04T12:13:20.243Z,12.50
2019-04-04T12:14:20.213Z,12.57
2019-04-04T12:15:20.205Z,12.68
2019-04-04T12:16:20.213Z,12.70
2019-04-04T12:17:20.245Z,12.79
2019-04-04T12:18:20.167Z,12.77
2019-04-04T12:19:20.154Z,12.77
2019-04-04T12:20:20.151Z,12.71
2019-04-04T12:21:20.163Z,12.78
2019-04-04T12:22:20.167Z,12.74
2019-04-04T12:23:20.156Z,12.70
2019-04-04T12:24:20.133Z,12.65
2019-04-04T12:25:20.092Z,12.65
2019-04-04T12:26:20.083Z,12.67
2019-04-04T12:27:20.078Z,12.77
2019-04-04T12:28:20.064Z,12.83
2019-04-04T12:29:20.073Z,12.90
2019-04-04T12:30:20.874Z,12.90
2019-04-04T12:31:20.025Z,12.97
2019-04-04T12:32:20.011Z,13.05
2019-04-04T12:33:20.004Z,13.03
2019-04-04T12:34:20.003Z,13.17
2019-04-04T12:35:20.005Z,13.14
2019-04-04T12:36:24.935Z,13.12
2019-04-04T12:37:20.979Z,13.08
2019-04-04T12:38:20.033Z,13.00
2019-04-04T12:39:19.950Z,13.00
2019-04-04T12:40:21.286Z,13.04
2019-04-04T12:41:19.938Z,13.04
2019-04-04T12:42:20.144Z,13.11
2019-04-04T12:43:19.885Z,13.15
2019-04-04T12:44:19.889Z,13.26
2019-04-04T12:45:19.878Z,13.28
2019-04-04T12:46:19.871Z,13.20
2019-04-04T12:47:19.842Z,13.04
2019-04-04T12:48:19.843Z,12.90
2019-04-04T12:49:19.824Z,12.87
2019-04-04T12:50:19.810Z,12.79
2019-04-04T12:51:19.813Z,12.65
2019-04-04T12:52:19.800Z,12.62
2019-04-04T12:53:19.811Z,12.59
2019-04-04T12:54:19.781Z,12.42
2019-04-04T12:55:19.751Z,12.52
2019-04-04T12:56:20.061Z,12.35
2019-04-04T12:57:19.748Z,12.52
2019-04-04T12:58:19.733Z,12.50
2019-04-04T12:59:19.745Z,12.57
2019-04-04T13:00:19.699Z,12.67
2019-04-04T13:01:21.255Z,12.82
2019-04-04T13:02:19.687Z,12.89
2019-04-04T13:03:22.270Z,12.90
2019-04-04T13:04:30.719Z,13.00
2019-04-04T13:05:20.646Z,13.14
2019-04-04T13:06:19.655Z,13.10
2019-04-04T13:07:19.627Z,13.19
2019-04-04T13:08:19.611Z,13.25
2019-04-04T13:09:19.611Z,13.17
2019-04-04T13:10:32.067Z,13.12